sensor_id;sensor_type;location;lat;lon;timestamp;temperature;humidity
39453;DHT22;25154;-33.684;151.102;2022-09-09T00:05:08;14.00;99.90
39453;DHT22;25154;-33.684;151.102;2022-09-09T00:10:34;14.10;99.90
39453;DHT22;25154;-33.684;151.102;2022-09-09T00:16:00;14.10;99.90
39453;DHT22;25154;-33.684;151.102;2022-09-09T00:21:13;14.10;99.90
39453;DHT22;25154;-33.684;151.102;2022-09-09T00:26:38;14.30;99.90
39453;DHT22;25154;-33.684;151.102;2022-09-09T00:31:41;14.70;99.90
39453;DHT22;25154;-33.684;151.102;2022-09-09T00:36:43;14.80;99.90
39453;DHT22;25154;-33.684;151.102;2022-09-09T00:42:16;14.60;99.90
39453;DHT22;25154;-33.684;151.102;2022-09-09T00:58:19;14.30;99.90
39453;DHT22;25154;-33.684;151.102;2022-09-09T01:30:13;15.90;99.90
39453;DHT22;25154;-33.684;151.102;2022-09-09T01:40:53;16.70;99.90
39453;DHT22;25154;-33.684;151.102;2022-09-09T01:45:58;17.30;99.90
39453;DHT22;25154;-33.684;151.102;2022-09-09T01:51:01;17.60;99.90
39453;DHT22;25154;-33.684;151.102;2022-09-09T02:01:53;18.20;99.90
39453;DHT22;25154;-33.684;151.102;2022-09-09T02:07:00;18.40;99.90
39453;DHT22;25154;-33.684;151.102;2022-09-09T02:12:16;18.40;99.90
39453;DHT22;25154;-33.684;151.102;2022-09-09T02:17:28;18.80;99.90
39453;DHT22;25154;-33.684;151.102;2022-09-09T02:22:35;18.90;99.90
39453;DHT22;25154;-33.684;151.102;2022-09-09T02:27:41;19.30;99.90
39453;DHT22;25154;-33.684;151.102;2022-09-09T02:32:46;20.00;99.90
39453;DHT22;25154;-33.684;151.102;2022-09-09T02:37:55;20.50;99.90
39453;DHT22;25154;-33.684;151.102;2022-09-09T02:43:00;20.60;99.90
39453;DHT22;25154;-33.684;151.102;2022-09-09T02:48:09;20.90;99.90
39453;DHT22;25154;-33.684;151.102;2022-09-09T02:53:22;21.20;99.90
39453;DHT22;25154;-33.684;151.102;2022-09-09T02:58:27;20.80;99.90
39453;DHT22;25154;-33.684;151.102;2022-09-09T03:03:29;20.80;99.90
39453;DHT22;25154;-33.684;151.102;2022-09-09T03:08:32;20.80;99.90
39453;DHT22;25154;-33.684;151.102;2022-09-09T03:13:34;20.90;99.90
39453;DHT22;25154;-33.684;151.102;2022-09-09T03:18:36;20.80;99.90
39453;DHT22;25154;-33.684;151.102;2022-09-09T03:23:39;20.80;99.90
39453;DHT22;25154;-33.684;151.102;2022-09-09T03:28:42;20.90;99.90
39453;DHT22;25154;-33.684;151.102;2022-09-09T03:33:44;20.90;99.90
39453;DHT22;25154;-33.684;151.102;2022-09-09T03:38:47;21.40;99.90
39453;DHT22;25154;-33.684;151.102;2022-09-09T03:43:52;21.80;99.90
39453;DHT22;25154;-33.684;151.102;2022-09-09T03:48:55;22.00;99.90
39453;DHT22;25154;-33.684;151.102;2022-09-09T03:53:58;22.30;99.90
39453;DHT22;25154;-33.684;151.102;2022-09-09T03:59:01;21.50;99.90
39453;DHT22;25154;-33.684;151.102;2022-09-09T04:04:04;21.40;99.90
39453;DHT22;25154;-33.684;151.102;2022-09-09T04:09:06;21.10;99.90
39453;DHT22;25154;-33.684;151.102;2022-09-09T04:14:08;22.50;99.90
39453;DHT22;25154;-33.684;151.102;2022-09-09T04:19:12;23.70;99.90
39453;DHT22;25154;-33.684;151.102;2022-09-09T04:24:15;24.80;99.90
39453;DHT22;25154;-33.684;151.102;2022-09-09T04:29:17;25.10;99.90
39453;DHT22;25154;-33.684;151.102;2022-09-09T04:34:20;25.50;99.90
39453;DHT22;25154;-33.684;151.102;2022-09-09T04:39:22;25.90;99.90
39453;DHT22;25154;-33.684;151.102;2022-09-09T04:44:24;26.50;99.90
39453;DHT22;25154;-33.684;151.102;2022-09-09T04:49:27;26.80;99.90
39453;DHT22;25154;-33.684;151.102;2022-09-09T04:54:29;26.80;99.90
39453;DHT22;25154;-33.684;151.102;2022-09-09T04:59:32;27.20;99.90
39453;DHT22;25154;-33.684;151.102;2022-09-09T05:04:34;27.30;99.90
39453;DHT22;25154;-33.684;151.102;2022-09-09T05:09:36;27.60;96.90
39453;DHT22;25154;-33.684;151.102;2022-09-09T05:14:39;27.20;98.40
39453;DHT22;25154;-33.684;151.102;2022-09-09T05:19:41;26.90;97.50
39453;DHT22;25154;-33.684;151.102;2022-09-09T05:24:44;25.70;98.00
39453;DHT22;25154;-33.684;151.102;2022-09-09T05:29:47;24.90;99.90
39453;DHT22;25154;-33.684;151.102;2022-09-09T05:34:49;23.30;99.90
39453;DHT22;25154;-33.684;151.102;2022-09-09T05:39:53;22.90;99.90
39453;DHT22;25154;-33.684;151.102;2022-09-09T05:44:55;23.30;99.90
39453;DHT22;25154;-33.684;151.102;2022-09-09T05:50:01;25.60;99.90
39453;DHT22;25154;-33.684;151.102;2022-09-09T05:55:03;26.50;98.20
39453;DHT22;25154;-33.684;151.102;2022-09-09T06:00:07;27.10;97.40
39453;DHT22;25154;-33.684;151.102;2022-09-09T06:05:10;27.10;96.50
39453;DHT22;25154;-33.684;151.102;2022-09-09T06:10:12;26.40;96.10
39453;DHT22;25154;-33.684;151.102;2022-09-09T06:15:15;26.10;95.20
39453;DHT22;25154;-33.684;151.102;2022-09-09T06:20:17;24.70;96.80
39453;DHT22;25154;-33.684;151.102;2022-09-09T06:25:19;24.30;95.90
39453;DHT22;25154;-33.684;151.102;2022-09-09T06:30:22;24.80;95.90
39453;DHT22;25154;-33.684;151.102;2022-09-09T06:35:24;23.70;97.20
39453;DHT22;25154;-33.684;151.102;2022-09-09T06:40:27;23.80;97.80
39453;DHT22;25154;-33.684;151.102;2022-09-09T06:45:29;24.30;98.80
39453;DHT22;25154;-33.684;151.102;2022-09-09T06:50:32;25.30;98.60
39453;DHT22;25154;-33.684;151.102;2022-09-09T06:55:34;25.90;99.90
39453;DHT22;25154;-33.684;151.102;2022-09-09T07:00:37;25.90;99.00
39453;DHT22;25154;-33.684;151.102;2022-09-09T07:05:40;25.20;99.50
39453;DHT22;25154;-33.684;151.102;2022-09-09T07:10:42;23.50;99.90
39453;DHT22;25154;-33.684;151.102;2022-09-09T07:15:45;22.00;99.90
39453;DHT22;25154;-33.684;151.102;2022-09-09T07:20:56;20.80;99.90
39453;DHT22;25154;-33.684;151.102;2022-09-09T07:25:59;19.90;99.90
39453;DHT22;25154;-33.684;151.102;2022-09-09T07:31:02;19.10;99.90
39453;DHT22;25154;-33.684;151.102;2022-09-09T07:36:08;18.40;99.90
39453;DHT22;25154;-33.684;151.102;2022-09-09T07:41:13;17.90;99.90
39453;DHT22;25154;-33.684;151.102;2022-09-09T07:46:19;17.40;99.90
39453;DHT22;25154;-33.684;151.102;2022-09-09T07:51:25;17.00;99.90
39453;DHT22;25154;-33.684;151.102;2022-09-09T07:56:29;16.60;99.90
39453;DHT22;25154;-33.684;151.102;2022-09-09T08:01:34;16.30;99.90
39453;DHT22;25154;-33.684;151.102;2022-09-09T08:06:42;16.00;99.90
39453;DHT22;25154;-33.684;151.102;2022-09-09T08:11:45;15.80;99.90
39453;DHT22;25154;-33.684;151.102;2022-09-09T08:16:49;15.50;99.90
39453;DHT22;25154;-33.684;151.102;2022-09-09T08:21:51;15.40;99.90
39453;DHT22;25154;-33.684;151.102;2022-09-09T08:26:54;15.30;99.90
39453;DHT22;25154;-33.684;151.102;2022-09-09T08:31:58;15.20;99.90
39453;DHT22;25154;-33.684;151.102;2022-09-09T08:37:01;15.10;99.90
39453;DHT22;25154;-33.684;151.102;2022-09-09T08:42:46;15.00;99.90
39453;DHT22;25154;-33.684;151.102;2022-09-09T08:48:03;14.80;99.90
39453;DHT22;25154;-33.684;151.102;2022-09-09T08:53:17;14.70;99.90
39453;DHT22;25154;-33.684;151.102;2022-09-09T08:58:28;14.60;99.90
39453;DHT22;25154;-33.684;151.102;2022-09-09T09:14:35;14.50;99.90
39453;DHT22;25154;-33.684;151.102;2022-09-09T09:19:40;14.60;99.90
39453;DHT22;25154;-33.684;151.102;2022-09-09T09:29:58;14.60;99.90
39453;DHT22;25154;-33.684;151.102;2022-09-09T09:35:02;14.50;99.90
39453;DHT22;25154;-33.684;151.102;2022-09-09T09:45:42;14.10;99.90
39453;DHT22;25154;-33.684;151.102;2022-09-09T09:50:56;13.90;99.90
39453;DHT22;25154;-33.684;151.102;2022-09-09T10:01:03;13.90;99.90
39453;DHT22;25154;-33.684;151.102;2022-09-09T10:06:06;13.80;99.90
39453;DHT22;25154;-33.684;151.102;2022-09-09T10:11:35;13.60;99.90
39453;DHT22;25154;-33.684;151.102;2022-09-09T10:17:09;13.50;99.90
39453;DHT22;25154;-33.684;151.102;2022-09-09T10:22:28;13.30;99.90
39453;DHT22;25154;-33.684;151.102;2022-09-09T10:38:15;13.00;99.90
39453;DHT22;25154;-33.684;151.102;2022-09-09T10:43:53;12.90;99.90
39453;DHT22;25154;-33.684;151.102;2022-09-09T11:00:13;12.90;99.90
39453;DHT22;25154;-33.684;151.102;2022-09-09T11:21:50;13.40;99.90
39453;DHT22;25154;-33.684;151.102;2022-09-09T11:27:09;13.90;99.90
39453;DHT22;25154;-33.684;151.102;2022-09-09T11:43:13;14.70;99.90
39453;DHT22;25154;-33.684;151.102;2022-09-09T11:48:38;14.70;99.90
39453;DHT22;25154;-33.684;151.102;2022-09-09T11:53:54;14.60;99.90
39453;DHT22;25154;-33.684;151.102;2022-09-09T11:59:01;14.50;99.90
39453;DHT22;25154;-33.684;151.102;2022-09-09T12:15:16;14.50;99.90
39453;DHT22;25154;-33.684;151.102;2022-09-09T12:20:29;14.60;99.90
39453;DHT22;25154;-33.684;151.102;2022-09-09T12:25:53;14.60;99.90
39453;DHT22;25154;-33.684;151.102;2022-09-09T12:36:29;14.40;99.90
39453;DHT22;25154;-33.684;151.102;2022-09-09T12:41:32;14.50;99.90
39453;DHT22;25154;-33.684;151.102;2022-09-09T12:46:45;14.60;99.90
39453;DHT22;25154;-33.684;151.102;2022-09-09T12:51:48;14.50;99.90
39453;DHT22;25154;-33.684;151.102;2022-09-09T12:56:50;14.50;99.90
39453;DHT22;25154;-33.684;151.102;2022-09-09T13:01:57;14.50;99.90
39453;DHT22;25154;-33.684;151.102;2022-09-09T13:07:07;14.30;99.90
39453;DHT22;25154;-33.684;151.102;2022-09-09T13:12:18;13.90;99.90
39453;DHT22;25154;-33.684;151.102;2022-09-09T13:17:26;13.60;99.90
39453;DHT22;25154;-33.684;151.102;2022-09-09T13:22:35;13.60;99.90
39453;DHT22;25154;-33.684;151.102;2022-09-09T13:27:41;13.50;99.90
39453;DHT22;25154;-33.684;151.102;2022-09-09T13:32:44;13.40;99.90
39453;DHT22;25154;-33.684;151.102;2022-09-09T13:37:46;13.30;99.90
39453;DHT22;25154;-33.684;151.102;2022-09-09T13:42:52;13.10;99.90
39453;DHT22;25154;-33.684;151.102;2022-09-09T13:47:56;12.90;99.90
39453;DHT22;25154;-33.684;151.102;2022-09-09T13:52:59;12.60;99.90
39453;DHT22;25154;-33.684;151.102;2022-09-09T13:58:03;12.60;99.90
39453;DHT22;25154;-33.684;151.102;2022-09-09T14:03:07;12.50;99.90
39453;DHT22;25154;-33.684;151.102;2022-09-09T14:08:25;12.50;99.90
39453;DHT22;25154;-33.684;151.102;2022-09-09T14:13:28;12.60;99.90
39453;DHT22;25154;-33.684;151.102;2022-09-09T14:18:31;12.70;99.90
39453;DHT22;25154;-33.684;151.102;2022-09-09T14:23:35;12.50;99.90
39453;DHT22;25154;-33.684;151.102;2022-09-09T14:28:37;12.70;99.90
39453;DHT22;25154;-33.684;151.102;2022-09-09T14:33:41;12.80;99.90
39453;DHT22;25154;-33.684;151.102;2022-09-09T14:38:44;12.80;99.90
39453;DHT22;25154;-33.684;151.102;2022-09-09T14:43:46;12.60;99.90
39453;DHT22;25154;-33.684;151.102;2022-09-09T14:48:49;12.50;99.90
39453;DHT22;25154;-33.684;151.102;2022-09-09T14:53:56;12.40;99.90
39453;DHT22;25154;-33.684;151.102;2022-09-09T14:59:00;12.40;99.90
39453;DHT22;25154;-33.684;151.102;2022-09-09T15:04:04;12.40;99.90
39453;DHT22;25154;-33.684;151.102;2022-09-09T15:09:07;12.30;99.90
39453;DHT22;25154;-33.684;151.102;2022-09-09T15:14:09;12.20;99.90
39453;DHT22;25154;-33.684;151.102;2022-09-09T15:19:13;12.40;99.90
39453;DHT22;25154;-33.684;151.102;2022-09-09T15:24:15;12.50;99.90
39453;DHT22;25154;-33.684;151.102;2022-09-09T15:29:18;12.50;99.90
39453;DHT22;25154;-33.684;151.102;2022-09-09T15:34:20;12.50;99.90
39453;DHT22;25154;-33.684;151.102;2022-09-09T15:39:22;12.60;99.90
39453;DHT22;25154;-33.684;151.102;2022-09-09T15:44:25;12.50;99.90
39453;DHT22;25154;-33.684;151.102;2022-09-09T15:49:27;12.50;99.90
39453;DHT22;25154;-33.684;151.102;2022-09-09T15:54:33;12.30;99.90
39453;DHT22;25154;-33.684;151.102;2022-09-09T15:59:36;12.20;99.90
39453;DHT22;25154;-33.684;151.102;2022-09-09T16:04:39;12.00;99.90
39453;DHT22;25154;-33.684;151.102;2022-09-09T16:09:41;11.90;99.90
39453;DHT22;25154;-33.684;151.102;2022-09-09T16:14:45;11.90;99.90
39453;DHT22;25154;-33.684;151.102;2022-09-09T16:19:47;11.80;99.90
39453;DHT22;25154;-33.684;151.102;2022-09-09T16:24:49;11.70;99.90
39453;DHT22;25154;-33.684;151.102;2022-09-09T16:29:51;11.70;99.90
39453;DHT22;25154;-33.684;151.102;2022-09-09T16:34:55;11.80;99.90
39453;DHT22;25154;-33.684;151.102;2022-09-09T16:39:57;11.80;99.90
39453;DHT22;25154;-33.684;151.102;2022-09-09T16:45:00;11.80;99.90
39453;DHT22;25154;-33.684;151.102;2022-09-09T16:50:02;11.80;99.90
39453;DHT22;25154;-33.684;151.102;2022-09-09T16:55:05;11.70;99.90
39453;DHT22;25154;-33.684;151.102;2022-09-09T17:00:08;11.50;99.90
39453;DHT22;25154;-33.684;151.102;2022-09-09T17:05:10;11.40;99.90
39453;DHT22;25154;-33.684;151.102;2022-09-09T17:10:13;11.20;99.90
39453;DHT22;25154;-33.684;151.102;2022-09-09T17:15:16;11.00;99.90
39453;DHT22;25154;-33.684;151.102;2022-09-09T17:20:19;11.00;99.90
39453;DHT22;25154;-33.684;151.102;2022-09-09T17:25:23;11.10;99.90
39453;DHT22;25154;-33.684;151.102;2022-09-09T17:30:26;11.10;99.90
39453;DHT22;25154;-33.684;151.102;2022-09-09T17:35:29;11.00;99.90
39453;DHT22;25154;-33.684;151.102;2022-09-09T17:40:31;10.90;99.90
39453;DHT22;25154;-33.684;151.102;2022-09-09T17:45:34;10.90;99.90
39453;DHT22;25154;-33.684;151.102;2022-09-09T17:50:36;11.00;99.90
39453;DHT22;25154;-33.684;151.102;2022-09-09T17:55:38;11.00;99.90
39453;DHT22;25154;-33.684;151.102;2022-09-09T18:00:41;11.10;99.90
39453;DHT22;25154;-33.684;151.102;2022-09-09T18:05:43;11.30;99.90
39453;DHT22;25154;-33.684;151.102;2022-09-09T18:10:52;11.40;99.90
39453;DHT22;25154;-33.684;151.102;2022-09-09T18:15:56;11.60;99.90
39453;DHT22;25154;-33.684;151.102;2022-09-09T18:21:04;11.60;99.90
39453;DHT22;25154;-33.684;151.102;2022-09-09T18:26:12;11.60;99.90
39453;DHT22;25154;-33.684;151.102;2022-09-09T18:31:17;11.60;99.90
39453;DHT22;25154;-33.684;151.102;2022-09-09T18:36:26;11.60;99.90
39453;DHT22;25154;-33.684;151.102;2022-09-09T18:41:32;11.50;99.90
39453;DHT22;25154;-33.684;151.102;2022-09-09T18:46:36;11.50;99.90
39453;DHT22;25154;-33.684;151.102;2022-09-09T18:51:41;11.60;99.90
39453;DHT22;25154;-33.684;151.102;2022-09-09T18:56:45;11.80;99.90
39453;DHT22;25154;-33.684;151.102;2022-09-09T19:01:48;11.80;99.90
39453;DHT22;25154;-33.684;151.102;2022-09-09T19:06:51;11.80;99.90
39453;DHT22;25154;-33.684;151.102;2022-09-09T19:11:59;11.80;99.90
39453;DHT22;25154;-33.684;151.102;2022-09-09T19:17:01;11.80;99.90
39453;DHT22;25154;-33.684;151.102;2022-09-09T19:22:04;11.80;99.90
39453;DHT22;25154;-33.684;151.102;2022-09-09T19:27:09;11.80;99.90
39453;DHT22;25154;-33.684;151.102;2022-09-09T19:32:11;11.80;99.90
39453;DHT22;25154;-33.684;151.102;2022-09-09T19:37:14;11.80;99.90
39453;DHT22;25154;-33.684;151.102;2022-09-09T19:42:16;11.70;99.90
39453;DHT22;25154;-33.684;151.102;2022-09-09T19:47:19;11.70;99.90
39453;DHT22;25154;-33.684;151.102;2022-09-09T19:52:21;11.80;99.90
39453;DHT22;25154;-33.684;151.102;2022-09-09T19:57:23;11.70;99.90
39453;DHT22;25154;-33.684;151.102;2022-09-09T20:02:29;11.60;99.90
39453;DHT22;25154;-33.684;151.102;2022-09-09T20:07:31;11.70;99.90
39453;DHT22;25154;-33.684;151.102;2022-09-09T20:12:34;11.70;99.90
39453;DHT22;25154;-33.684;151.102;2022-09-09T20:17:36;11.70;99.90
39453;DHT22;25154;-33.684;151.102;2022-09-09T20:22:38;11.60;99.90
39453;DHT22;25154;-33.684;151.102;2022-09-09T20:27:40;11.50;99.90
39453;DHT22;25154;-33.684;151.102;2022-09-09T20:32:43;11.50;99.90
39453;DHT22;25154;-33.684;151.102;2022-09-09T20:37:45;11.50;99.90
39453;DHT22;25154;-33.684;151.102;2022-09-09T20:42:49;11.50;99.90
39453;DHT22;25154;-33.684;151.102;2022-09-09T20:47:56;11.50;99.90
39453;DHT22;25154;-33.684;151.102;2022-09-09T20:52:58;11.50;99.90
39453;DHT22;25154;-33.684;151.102;2022-09-09T20:58:00;11.50;99.90
39453;DHT22;25154;-33.684;151.102;2022-09-09T21:03:03;11.50;99.90
39453;DHT22;25154;-33.684;151.102;2022-09-09T21:08:06;11.50;99.90
39453;DHT22;25154;-33.684;151.102;2022-09-09T21:13:10;11.50;99.90
39453;DHT22;25154;-33.684;151.102;2022-09-09T21:18:16;11.60;99.90
39453;DHT22;25154;-33.684;151.102;2022-09-09T21:23:20;11.80;99.90
39453;DHT22;25154;-33.684;151.102;2022-09-09T21:28:24;12.20;99.90
39453;DHT22;25154;-33.684;151.102;2022-09-09T21:33:29;12.30;99.90
39453;DHT22;25154;-33.684;151.102;2022-09-09T21:38:32;12.50;99.90
39453;DHT22;25154;-33.684;151.102;2022-09-09T21:43:36;12.90;99.90
39453;DHT22;25154;-33.684;151.102;2022-09-09T21:48:41;13.20;99.90
39453;DHT22;25154;-33.684;151.102;2022-09-09T21:53:45;13.50;99.90
39453;DHT22;25154;-33.684;151.102;2022-09-09T21:58:52;13.80;99.90
39453;DHT22;25154;-33.684;151.102;2022-09-09T22:03:57;14.40;99.90
39453;DHT22;25154;-33.684;151.102;2022-09-09T22:09:01;15.10;99.90
39453;DHT22;25154;-33.684;151.102;2022-09-09T22:14:03;15.90;99.90
39453;DHT22;25154;-33.684;151.102;2022-09-09T22:19:09;16.40;99.90
39453;DHT22;25154;-33.684;151.102;2022-09-09T22:24:11;16.50;99.90
39453;DHT22;25154;-33.684;151.102;2022-09-09T22:29:13;16.60;99.90
39453;DHT22;25154;-33.684;151.102;2022-09-09T22:34:17;16.60;99.90
39453;DHT22;25154;-33.684;151.102;2022-09-09T22:39:21;16.40;99.90
39453;DHT22;25154;-33.684;151.102;2022-09-09T22:44:25;16.20;99.90
39453;DHT22;25154;-33.684;151.102;2022-09-09T22:49:28;16.20;99.90
39453;DHT22;25154;-33.684;151.102;2022-09-09T22:54:31;15.50;99.90
39453;DHT22;25154;-33.684;151.102;2022-09-09T22:59:34;16.20;99.90
39453;DHT22;25154;-33.684;151.102;2022-09-09T23:10:04;16.70;99.90
39453;DHT22;25154;-33.684;151.102;2022-09-09T23:15:08;17.40;99.90
39453;DHT22;25154;-33.684;151.102;2022-09-09T23:20:11;18.10;99.90
39453;DHT22;25154;-33.684;151.102;2022-09-09T23:25:14;18.20;99.90
39453;DHT22;25154;-33.684;151.102;2022-09-09T23:30:17;18.10;99.90
39453;DHT22;25154;-33.684;151.102;2022-09-09T23:35:20;18.10;99.90
39453;DHT22;25154;-33.684;151.102;2022-09-09T23:40:23;18.20;99.90
39453;DHT22;25154;-33.684;151.102;2022-09-09T23:45:27;18.10;99.90
39453;DHT22;25154;-33.684;151.102;2022-09-09T23:50:30;18.10;99.90
39453;DHT22;25154;-33.684;151.102;2022-09-09T23:55:33;18.70;99.90
